createdAt,value
2023-05-05T00:01:08.766Z,15.85
2023-05-05T00:03:35.889Z,15.74
2023-05-05T00:06:02.916Z,15.73
2023-05-05T00:08:29.781Z,15.67
2023-05-05T00:10:57.387Z,15.72
2023-05-05T00:13:24.303Z,15.74
2023-05-05T00:15:53.456Z,15.72
2023-05-05T00:18:21.219Z,15.59
2023-05-05T00:20:48.152Z,15.46
2023-05-05T00:23:15.693Z,15.42
2023-05-05T00:25:42.191Z,15.38
2023-05-05T00:28:08.758Z,15.36
2023-05-05T00:30:37.186Z,15.38
2023-05-05T00:33:04.160Z,15.41
2023-05-05T00:35:30.686Z,15.40
2023-05-05T00:37:57.159Z,15.37
2023-05-05T00:40:25.029Z,15.39
2023-05-05T00:42:53.484Z,15.37
2023-05-05T00:45:20.327Z,15.34
2023-05-05T00:47:54.673Z,15.36
2023-05-05T00:50:26.155Z,15.37
2023-05-05T00:52:55.291Z,15.35
2023-05-05T00:55:22.178Z,15.27
2023-05-05T00:57:49.218Z,15.26
2023-05-05T01:00:16.757Z,15.29
2023-05-05T01:02:44.708Z,15.26
2023-05-05T01:05:14.259Z,15.26
2023-05-05T01:07:43.576Z,15.23
2023-05-05T01:10:32.041Z,15.24
2023-05-05T01:13:25.688Z,15.22
2023-05-05T01:16:00.918Z,15.13
2023-05-05T01:18:36.740Z,15.04
2023-05-05T01:21:03.214Z,15.05
2023-05-05T01:24:08.154Z,15.07
2023-05-05T01:26:53.789Z,15.07
2023-05-05T01:29:31.831Z,15.12
2023-05-05T01:32:15.795Z,15.16
2023-05-05T01:34:53.426Z,15.17
2023-05-05T01:37:24.486Z,15.19
2023-05-05T01:39:56.281Z,15.21
2023-05-05T01:42:25.197Z,15.22
2023-05-05T01:44:54.178Z,15.23
2023-05-05T01:47:23.057Z,15.23
2023-05-05T01:49:50.578Z,15.26
2023-05-05T01:52:18.221Z,15.26
2023-05-05T01:54:46.868Z,15.29
2023-05-05T01:57:15.556Z,15.29
2023-05-05T01:59:42.351Z,15.27
2023-05-05T02:02:13.527Z,15.28
2023-05-05T02:04:43.639Z,15.29
2023-05-05T02:07:12.672Z,15.30
2023-05-05T02:09:40.717Z,15.28
2023-05-05T02:12:08.623Z,15.28
2023-05-05T02:14:36.892Z,15.29
2023-05-05T02:17:04.124Z,15.24
2023-05-05T02:19:37.918Z,15.21
2023-05-05T02:22:04.436Z,15.18
2023-05-05T02:24:30.937Z,15.15
2023-05-05T02:27:00.257Z,15.10
2023-05-05T02:29:34.684Z,15.07
2023-05-05T02:32:14.228Z,15.02
2023-05-05T02:34:43.448Z,14.98
2023-05-05T02:37:19.866Z,14.97
2023-05-05T02:40:02.601Z,14.92
2023-05-05T02:42:36.759Z,14.86
2023-05-05T02:45:13.507Z,14.78
2023-05-05T02:47:42.977Z,14.75
2023-05-05T02:50:10.590Z,14.69
2023-05-05T02:52:41.836Z,14.67
2023-05-05T02:55:09.797Z,14.57
2023-05-05T02:57:55.804Z,14.52
2023-05-05T03:00:50.381Z,14.52
2023-05-05T03:03:28.639Z,14.50
2023-05-05T03:06:16.588Z,14.41
2023-05-05T03:08:50.957Z,14.34
2023-05-05T03:11:29.108Z,14.28
2023-05-05T03:14:05.436Z,14.20
2023-05-05T03:16:32.443Z,14.15
2023-05-05T03:19:00.615Z,14.10
2023-05-05T03:21:27.792Z,14.03
2023-05-05T03:23:54.467Z,13.98
2023-05-05T03:26:22.136Z,13.93
2023-05-05T03:28:48.726Z,13.90
2023-05-05T03:31:21.052Z,13.89
2023-05-05T03:33:51.946Z,13.81
2023-05-05T03:36:22.099Z,13.79
2023-05-05T03:38:48.831Z,13.75
2023-05-05T03:41:15.905Z,13.74
2023-05-05T03:43:42.435Z,13.68
2023-05-05T03:46:10.160Z,13.67
2023-05-05T03:48:36.835Z,13.64
2023-05-05T03:51:03.443Z,13.62
2023-05-05T03:53:32.344Z,13.63
2023-05-05T03:56:00.708Z,13.62
2023-05-05T03:58:27.331Z,13.59
2023-05-05T04:00:53.925Z,13.57
2023-05-05T04:03:20.997Z,13.57
2023-05-05T04:05:47.933Z,13.57
2023-05-05T04:08:14.561Z,13.55
2023-05-05T04:10:41.056Z,13.53
2023-05-05T04:13:08.613Z,13.52
2023-05-05T04:15:35.957Z,13.54
2023-05-05T04:18:04.527Z,13.51
2023-05-05T04:20:31.238Z,13.45
2023-05-05T04:22:57.801Z,13.43
2023-05-05T04:25:24.496Z,13.37
2023-05-05T04:27:51.087Z,13.38
2023-05-05T04:30:17.583Z,13.37
2023-05-05T04:32:44.749Z,13.38
2023-05-05T04:35:11.417Z,13.37
2023-05-05T04:37:38.189Z,13.35
2023-05-05T04:40:05.306Z,13.34
2023-05-05T04:42:33.519Z,13.34
2023-05-05T04:45:00.993Z,13.35
2023-05-05T04:47:29.238Z,13.35
2023-05-05T04:49:56.031Z,13.36
2023-05-05T04:52:22.700Z,13.36
2023-05-05T04:54:51.475Z,13.39
2023-05-05T04:57:17.902Z,13.40
2023-05-05T04:59:44.329Z,13.41
2023-05-05T05:02:10.849Z,13.41
2023-05-05T05:04:37.324Z,13.42
2023-05-05T05:07:03.747Z,13.45
2023-05-05T05:09:30.361Z,13.43
2023-05-05T05:12:03.031Z,13.44
2023-05-05T05:14:30.116Z,13.45
2023-05-05T05:16:56.623Z,13.51
2023-05-05T05:19:24.085Z,13.55
2023-05-05T05:21:51.028Z,13.68
2023-05-05T05:24:17.625Z,14.10
2023-05-05T05:26:44.158Z,14.32
2023-05-05T05:29:10.696Z,14.48
2023-05-05T05:31:37.252Z,14.42
2023-05-05T05:34:04.154Z,14.75
2023-05-05T05:36:31.703Z,14.78
2023-05-05T05:38:58.206Z,14.60
2023-05-05T05:41:25.676Z,14.57
2023-05-05T05:43:52.207Z,14.52
2023-05-05T05:46:19.251Z,14.60
2023-05-05T05:48:46.458Z,14.68
2023-05-05T05:51:13.514Z,14.78
2023-05-05T05:53:40.292Z,14.81
2023-05-05T05:56:08.970Z,14.86
2023-05-05T05:58:36.013Z,14.92
2023-05-05T06:01:03.903Z,14.91
2023-05-05T06:03:31.310Z,14.95
2023-05-05T06:05:59.174Z,15.00
2023-05-05T06:08:26.841Z,15.10
2023-05-05T06:10:54.786Z,15.30
2023-05-05T06:13:21.483Z,15.31
2023-05-05T06:15:50.846Z,15.33
2023-05-05T06:18:17.969Z,15.46
2023-05-05T06:20:44.810Z,15.59
2023-05-05T06:23:13.626Z,15.75
2023-05-05T06:25:44.846Z,16.09
2023-05-05T06:28:11.490Z,16.51
2023-05-05T06:30:37.938Z,17.08
2023-05-05T06:33:04.407Z,18.05
2023-05-05T06:35:30.868Z,19.15
2023-05-05T06:37:57.437Z,19.85
2023-05-05T06:40:23.866Z,20.33
2023-05-05T06:42:51.699Z,20.65
2023-05-05T06:45:23.067Z,19.97
2023-05-05T06:47:49.621Z,19.68
2023-05-05T06:50:16.192Z,19.65
2023-05-05T06:52:42.702Z,19.66
2023-05-05T06:55:09.922Z,20.19
2023-05-05T06:57:36.341Z,20.91
2023-05-05T07:00:05.691Z,21.40
2023-05-05T07:02:33.554Z,21.75
2023-05-05T07:05:11.106Z,21.83
2023-05-05T07:07:39.730Z,21.74
2023-05-05T07:10:07.577Z,22.29
2023-05-05T07:12:34.210Z,22.80
2023-05-05T07:15:04.853Z,22.99
2023-05-05T07:17:36.089Z,22.52
2023-05-05T07:20:02.983Z,22.73
2023-05-05T07:22:29.453Z,22.61
2023-05-05T07:24:56.014Z,22.35
2023-05-05T07:27:22.796Z,21.98
2023-05-05T07:29:50.655Z,21.57
2023-05-05T07:32:17.111Z,22.26
2023-05-05T07:34:43.621Z,22.81
2023-05-05T07:37:10.588Z,23.24
2023-05-05T07:39:37.066Z,23.59
2023-05-05T07:42:03.711Z,23.64
2023-05-05T07:44:30.580Z,23.68
2023-05-05T07:46:57.076Z,23.92
2023-05-05T07:49:23.535Z,24.00
2023-05-05T07:51:51.259Z,23.83
2023-05-05T07:54:18.027Z,23.73
2023-05-05T07:56:44.668Z,23.69
2023-05-05T07:59:11.846Z,23.76
2023-05-05T08:01:39.963Z,24.18
2023-05-05T08:04:06.540Z,24.53
2023-05-05T08:06:33.180Z,24.87
2023-05-05T08:09:00.865Z,24.85
2023-05-05T08:11:29.471Z,25.15
2023-05-05T08:13:56.390Z,25.49
2023-05-05T08:16:22.900Z,25.69
2023-05-05T08:18:51.960Z,25.77
2023-05-05T08:21:18.562Z,25.86
2023-05-05T08:23:45.112Z,26.04
2023-05-05T08:26:11.582Z,26.18
2023-05-05T08:28:38.089Z,25.79
2023-05-05T08:31:05.623Z,25.71
2023-05-05T08:33:32.693Z,25.43
2023-05-05T08:36:00.994Z,24.96
2023-05-05T08:38:29.607Z,24.52
2023-05-05T08:40:56.299Z,24.05
2023-05-05T08:43:23.965Z,23.84
2023-05-05T08:45:51.650Z,24.03
2023-05-05T08:48:22.545Z,23.78
2023-05-05T08:50:56.635Z,23.65
2023-05-05T08:54:00.629Z,23.71
2023-05-05T08:56:38.605Z,23.81
2023-05-05T08:59:05.918Z,23.71
2023-05-05T09:01:33.638Z,23.46
2023-05-05T09:04:00.621Z,23.47
2023-05-05T09:06:27.398Z,23.39
2023-05-05T09:08:54.413Z,23.31
2023-05-05T09:11:22.570Z,23.22
2023-05-05T09:13:49.715Z,23.16
2023-05-05T09:16:18.593Z,23.05
2023-05-05T09:18:45.586Z,22.93
2023-05-05T09:21:26.490Z,22.83
2023-05-05T09:24:10.895Z,22.93
2023-05-05T09:26:41.451Z,23.01
2023-05-05T09:29:07.988Z,23.12
2023-05-05T09:31:36.167Z,23.16
2023-05-05T09:34:14.126Z,23.08
2023-05-05T09:36:44.653Z,22.99
2023-05-05T09:39:13.486Z,22.98
2023-05-05T09:41:42.067Z,22.73
2023-05-05T09:44:08.873Z,22.44
2023-05-05T09:46:35.994Z,22.33
2023-05-05T09:49:17.991Z,22.29
2023-05-05T09:51:47.518Z,22.21
2023-05-05T09:54:24.841Z,22.10
2023-05-05T09:56:52.281Z,22.16
2023-05-05T09:59:19.280Z,22.16
2023-05-05T10:01:46.279Z,22.07
2023-05-05T10:04:30.125Z,21.92
2023-05-05T10:06:57.894Z,21.83
2023-05-05T10:09:26.102Z,21.96
2023-05-05T10:11:53.417Z,21.94
2023-05-05T10:14:20.407Z,21.99
2023-05-05T10:16:50.606Z,21.55
2023-05-05T10:19:20.410Z,20.36
2023-05-05T10:21:49.842Z,19.23
2023-05-05T10:24:30.488Z,18.64
2023-05-05T10:27:00.677Z,17.87
2023-05-05T10:29:46.006Z,17.42
2023-05-05T10:32:50.917Z,17.15
2023-05-05T10:35:16.474Z,17.26
2023-05-05T10:37:44.617Z,17.41
2023-05-05T10:40:14.010Z,17.29
2023-05-05T10:42:41.380Z,17.13
2023-05-05T10:45:08.551Z,17.07
2023-05-05T10:47:36.638Z,16.96
2023-05-05T10:50:13.923Z,16.90
2023-05-05T10:52:46.913Z,16.87
2023-05-05T10:55:17.653Z,16.70
2023-05-05T10:57:45.837Z,16.53
2023-05-05T11:00:40.178Z,16.42
2023-05-05T11:03:19.266Z,16.47
2023-05-05T11:06:03.868Z,16.50
2023-05-05T11:08:32.313Z,16.55
2023-05-05T11:10:59.553Z,16.49
2023-05-05T11:13:26.471Z,16.46
2023-05-05T11:15:54.327Z,16.50
2023-05-05T11:18:40.531Z,16.69
2023-05-05T11:21:15.293Z,16.87
2023-05-05T11:23:49.661Z,16.96
2023-05-05T11:26:18.570Z,16.94
2023-05-05T11:29:02.526Z,16.76
2023-05-05T11:31:30.869Z,16.66
2023-05-05T11:34:24.311Z,16.69
2023-05-05T11:36:52.209Z,16.62
2023-05-05T11:39:27.515Z,16.59
2023-05-05T11:42:06.594Z,16.58
2023-05-05T11:44:36.123Z,16.57
2023-05-05T11:47:05.307Z,16.45
2023-05-05T11:49:32.729Z,16.36
2023-05-05T11:52:04.304Z,16.39
2023-05-05T11:54:31.701Z,16.31
2023-05-05T11:57:02.898Z,16.28
2023-05-05T11:59:29.299Z,16.20
2023-05-05T12:01:55.916Z,16.13
2023-05-05T12:04:22.743Z,16.03
2023-05-05T12:06:49.551Z,16.05
2023-05-05T12:09:17.791Z,16.16
2023-05-05T12:11:51.339Z,16.21
2023-05-05T12:14:18.248Z,16.23
2023-05-05T12:17:07.069Z,16.21
2023-05-05T12:19:33.727Z,16.28
2023-05-05T12:22:04.471Z,16.25
2023-05-05T12:24:31.160Z,16.24
2023-05-05T12:27:10.886Z,16.24
2023-05-05T12:29:37.930Z,16.30
2023-05-05T12:32:04.690Z,16.27
2023-05-05T12:34:31.884Z,16.29
2023-05-05T12:36:58.675Z,16.29
2023-05-05T12:39:35.459Z,16.24
2023-05-05T12:42:06.272Z,16.20
2023-05-05T12:44:39.595Z,16.21
2023-05-05T12:47:06.971Z,16.22
2023-05-05T12:49:49.912Z,16.26
2023-05-05T12:52:16.749Z,16.29
2023-05-05T12:54:57.822Z,16.30
2023-05-05T12:57:25.391Z,16.27
2023-05-05T12:59:53.343Z,16.31
2023-05-05T13:02:20.815Z,16.26
2023-05-05T13:04:54.666Z,16.17
2023-05-05T13:07:21.914Z,16.25
2023-05-05T13:09:49.542Z,16.24
2023-05-05T13:12:17.857Z,16.30
2023-05-05T13:14:44.631Z,16.34
2023-05-05T13:17:11.941Z,16.23
2023-05-05T13:19:46.061Z,16.21
2023-05-05T13:22:13.473Z,16.11
2023-05-05T13:24:51.020Z,16.07
2023-05-05T13:27:19.627Z,16.12
2023-05-05T13:29:46.236Z,16.04
2023-05-05T13:32:12.770Z,16.01
2023-05-05T13:34:41.458Z,15.96
2023-05-05T13:37:08.612Z,15.82
2023-05-05T13:39:35.258Z,15.73
2023-05-05T13:42:01.708Z,15.67
2023-05-05T13:44:28.229Z,15.61
2023-05-05T13:46:54.821Z,15.59
2023-05-05T13:49:21.317Z,15.58
2023-05-05T13:51:47.913Z,15.60
2023-05-05T13:54:14.463Z,15.54
2023-05-05T13:56:41.043Z,15.55
2023-05-05T13:59:07.584Z,15.54
2023-05-05T14:01:34.197Z,15.44
2023-05-05T14:04:03.598Z,15.41
2023-05-05T14:06:31.273Z,15.49
2023-05-05T14:08:57.806Z,15.52
2023-05-05T14:11:24.316Z,15.49
2023-05-05T14:13:51.928Z,15.44
2023-05-05T14:16:18.665Z,15.48
2023-05-05T14:18:45.623Z,15.62
2023-05-05T14:21:12.420Z,15.64
2023-05-05T14:23:38.917Z,15.67
2023-05-05T14:26:05.441Z,15.67
2023-05-05T14:28:34.267Z,15.68
2023-05-05T14:31:00.748Z,15.68
2023-05-05T14:33:27.153Z,15.65
2023-05-05T14:35:53.589Z,15.72
2023-05-05T14:38:20.095Z,15.62
2023-05-05T14:40:46.565Z,15.34
2023-05-05T14:43:13.494Z,15.27
2023-05-05T14:45:39.973Z,15.16
2023-05-05T14:48:06.446Z,15.06
2023-05-05T14:50:32.923Z,15.08
2023-05-05T14:53:00.868Z,15.13
2023-05-05T14:55:27.349Z,15.22
2023-05-05T14:57:53.874Z,15.36
2023-05-05T15:00:20.524Z,15.32
2023-05-05T15:02:48.159Z,15.30
2023-05-05T15:05:15.021Z,15.43
2023-05-05T15:07:41.571Z,15.49
2023-05-05T15:10:08.343Z,15.45
2023-05-05T15:12:35.067Z,15.52
2023-05-05T15:15:01.844Z,15.50
2023-05-05T15:17:28.682Z,15.47
2023-05-05T15:19:55.219Z,15.37
2023-05-05T15:22:21.699Z,15.39
2023-05-05T15:24:48.167Z,15.41
2023-05-05T15:27:14.742Z,15.50
2023-05-05T15:29:44.021Z,15.57
2023-05-05T15:32:13.785Z,15.58
2023-05-05T15:34:40.561Z,15.56
2023-05-05T15:37:07.037Z,15.59
2023-05-05T15:39:33.454Z,15.73
2023-05-05T15:42:03.683Z,15.70
2023-05-05T15:44:30.778Z,15.70
2023-05-05T15:46:57.575Z,15.70
2023-05-05T15:49:24.072Z,15.70
2023-05-05T15:51:51.824Z,15.56
2023-05-05T15:54:18.250Z,15.54
2023-05-05T15:56:44.717Z,15.52
2023-05-05T15:59:13.228Z,15.46
2023-05-05T16:01:39.792Z,15.34
2023-05-05T16:04:06.565Z,15.34
2023-05-05T16:06:33.072Z,15.34
2023-05-05T16:09:00.271Z,15.36
2023-05-05T16:11:26.946Z,15.41
2023-05-05T16:13:53.718Z,15.41
2023-05-05T16:16:20.733Z,15.44
2023-05-05T16:18:47.461Z,15.47
2023-05-05T16:21:13.928Z,15.51
2023-05-05T16:23:40.536Z,15.50
2023-05-05T16:26:07.014Z,15.48
2023-05-05T16:28:34.283Z,15.48
2023-05-05T16:31:01.773Z,15.44
2023-05-05T16:33:28.760Z,15.42
2023-05-05T16:35:55.456Z,15.39
2023-05-05T16:38:23.096Z,15.31
2023-05-05T16:40:49.661Z,15.26
2023-05-05T16:43:16.194Z,15.23
2023-05-05T16:45:43.472Z,15.20
2023-05-05T16:48:10.055Z,15.18
2023-05-05T16:50:36.567Z,15.19
2023-05-05T16:53:03.074Z,15.20
2023-05-05T16:55:29.693Z,15.19
2023-05-05T16:57:56.185Z,15.15
2023-05-05T17:00:22.699Z,15.13
2023-05-05T17:02:49.582Z,15.12
2023-05-05T17:05:17.584Z,15.13
2023-05-05T17:07:44.192Z,15.08
2023-05-05T17:10:10.804Z,15.01
2023-05-05T17:12:37.378Z,14.96
2023-05-05T17:15:04.207Z,14.96
2023-05-05T17:17:30.828Z,14.96
2023-05-05T17:19:57.437Z,14.96
2023-05-05T17:22:23.982Z,14.95
2023-05-05T17:24:50.913Z,14.99
2023-05-05T17:27:17.364Z,15.03
2023-05-05T17:29:43.804Z,14.99
2023-05-05T17:32:10.474Z,14.92
2023-05-05T17:34:37.131Z,14.90
2023-05-05T17:37:03.608Z,14.87
2023-05-05T17:39:30.701Z,14.87
2023-05-05T17:41:57.141Z,14.89
2023-05-05T17:44:23.612Z,14.86
2023-05-05T17:46:50.186Z,14.85
2023-05-05T17:49:16.749Z,14.87
2023-05-05T17:51:43.194Z,14.86
2023-05-05T17:54:09.669Z,14.85
2023-05-05T17:56:36.811Z,14.82
2023-05-05T17:59:03.564Z,14.80
2023-05-05T18:01:30.083Z,14.78
2023-05-05T18:03:56.998Z,14.75
2023-05-05T18:06:23.463Z,14.76
2023-05-05T18:08:49.949Z,14.77
2023-05-05T18:11:16.508Z,14.77
2023-05-05T18:13:43.270Z,14.73
2023-05-05T18:16:09.821Z,14.68
2023-05-05T18:18:36.406Z,14.67
2023-05-05T18:21:02.938Z,14.64
2023-05-05T18:23:29.404Z,14.64
2023-05-05T18:25:55.784Z,14.61
2023-05-05T18:28:22.466Z,14.61
2023-05-05T18:30:48.932Z,14.63
2023-05-05T18:33:15.859Z,14.62
2023-05-05T18:35:42.310Z,14.60
2023-05-05T18:38:08.804Z,14.56
2023-05-05T18:40:35.256Z,14.50
2023-05-05T18:43:01.767Z,14.48
2023-05-05T18:45:28.269Z,14.46
2023-05-05T18:47:54.851Z,14.44
2023-05-05T18:50:21.428Z,14.40
2023-05-05T18:52:47.906Z,14.36
2023-05-05T18:55:14.440Z,14.31
2023-05-05T18:57:41.183Z,14.27
2023-05-05T19:00:08.096Z,14.23
2023-05-05T19:02:34.596Z,14.19
2023-05-05T19:05:01.388Z,14.13
2023-05-05T19:07:35.318Z,14.10
2023-05-05T19:10:04.365Z,14.09
2023-05-05T19:12:30.866Z,14.06
2023-05-05T19:14:57.582Z,13.99
2023-05-05T19:17:24.281Z,13.95
2023-05-05T19:19:51.469Z,13.83
2023-05-05T19:22:18.108Z,13.76
2023-05-05T19:24:44.592Z,13.74
2023-05-05T19:27:16.631Z,13.72
2023-05-05T19:29:43.740Z,13.67
2023-05-05T19:32:10.258Z,13.63
2023-05-05T19:34:36.913Z,13.59
2023-05-05T19:37:03.584Z,13.54
2023-05-05T19:39:30.169Z,13.50
2023-05-05T19:41:56.603Z,13.48
2023-05-05T19:44:23.774Z,13.46
2023-05-05T19:46:50.683Z,13.43
2023-05-05T19:49:17.427Z,13.39
2023-05-05T19:51:46.155Z,13.33
2023-05-05T19:54:12.697Z,13.27
2023-05-05T19:56:39.515Z,13.22
2023-05-05T19:59:06.430Z,13.20
2023-05-05T20:01:33.891Z,13.20
2023-05-05T20:04:00.800Z,13.16
2023-05-05T20:06:27.479Z,13.11
2023-05-05T20:08:55.400Z,13.08
2023-05-05T20:11:22.191Z,13.00
2023-05-05T20:13:49.995Z,12.97
2023-05-05T20:16:16.648Z,12.95
2023-05-05T20:18:43.568Z,12.90
2023-05-05T20:21:10.105Z,12.82
2023-05-05T20:23:36.960Z,12.80
2023-05-05T20:26:04.488Z,12.74
2023-05-05T20:28:31.766Z,12.70
2023-05-05T20:31:00.754Z,12.66
2023-05-05T20:33:28.340Z,12.64
2023-05-05T20:35:54.837Z,12.60
2023-05-05T20:38:21.297Z,12.56
2023-05-05T20:40:47.784Z,12.54
2023-05-05T20:43:14.474Z,12.54
2023-05-05T20:45:41.088Z,12.48
2023-05-05T20:48:09.853Z,12.45
2023-05-05T20:50:42.770Z,12.44
2023-05-05T20:53:11.305Z,12.42
2023-05-05T20:55:37.756Z,12.39
2023-05-05T20:58:05.364Z,12.36
2023-05-05T21:00:32.055Z,12.32
2023-05-05T21:02:59.024Z,12.29
2023-05-05T21:05:25.877Z,12.27
2023-05-05T21:07:53.591Z,12.21
2023-05-05T21:10:21.325Z,12.18
2023-05-05T21:12:47.908Z,12.15
2023-05-05T21:15:16.496Z,12.10
2023-05-05T21:17:43.094Z,12.05
2023-05-05T21:20:10.428Z,12.01
2023-05-05T21:22:37.122Z,11.96
2023-05-05T21:25:17.434Z,11.97
2023-05-05T21:27:44.240Z,11.95
2023-05-05T21:30:11.626Z,11.93
2023-05-05T21:32:39.830Z,11.91
2023-05-05T21:35:07.836Z,11.88
2023-05-05T21:37:37.839Z,11.85
2023-05-05T21:40:05.867Z,11.82
2023-05-05T21:42:32.313Z,11.79
2023-05-05T21:44:58.786Z,11.75
2023-05-05T21:47:26.794Z,11.74
2023-05-05T21:49:53.331Z,11.71
2023-05-05T21:52:19.745Z,11.68
2023-05-05T21:54:46.129Z,11.64
2023-05-05T21:57:12.572Z,11.62
2023-05-05T21:59:39.034Z,11.59
2023-05-05T22:02:05.656Z,11.56
2023-05-05T22:04:32.261Z,11.55
2023-05-05T22:06:58.694Z,11.52
2023-05-05T22:09:25.291Z,11.50
2023-05-05T22:11:51.945Z,11.43
2023-05-05T22:14:18.606Z,11.40
2023-05-05T22:16:45.311Z,11.39
2023-05-05T22:19:11.877Z,11.38
2023-05-05T22:21:38.356Z,11.37
2023-05-05T22:24:07.005Z,11.34
2023-05-05T22:26:33.656Z,11.34
2023-05-05T22:29:00.311Z,11.36
2023-05-05T22:31:26.868Z,11.39
2023-05-05T22:33:53.445Z,11.41
2023-05-05T22:36:20.033Z,11.36
2023-05-05T22:38:46.544Z,11.35
2023-05-05T22:41:13.894Z,11.32
2023-05-05T22:43:40.330Z,11.29
2023-05-05T22:46:06.809Z,11.30
2023-05-05T22:48:33.337Z,11.30
2023-05-05T22:50:59.930Z,11.30
2023-05-05T22:53:26.455Z,11.31
2023-05-05T22:55:52.983Z,11.33
2023-05-05T22:58:19.914Z,11.34
2023-05-05T23:00:46.426Z,11.38
2023-05-05T23:03:13.651Z,11.40
2023-05-05T23:05:40.139Z,11.38
2023-05-05T23:08:06.611Z,11.38
2023-05-05T23:10:33.103Z,11.36
2023-05-05T23:12:59.700Z,11.35
2023-05-05T23:15:26.304Z,11.33
2023-05-05T23:17:52.865Z,11.35
2023-05-05T23:20:19.569Z,11.34
2023-05-05T23:22:45.975Z,11.35
2023-05-05T23:25:13.778Z,11.36
2023-05-05T23:27:40.995Z,11.37
2023-05-05T23:30:09.110Z,11.34
2023-05-05T23:32:35.683Z,11.32
2023-05-05T23:35:02.292Z,11.29
2023-05-05T23:37:28.782Z,11.23
2023-05-05T23:39:56.376Z,11.17
2023-05-05T23:42:23.981Z,11.18
2023-05-05T23:44:51.793Z,11.19
2023-05-05T23:47:18.269Z,11.19
2023-05-05T23:49:44.798Z,11.19
2023-05-05T23:52:11.465Z,11.21
2023-05-05T23:54:38.042Z,11.26
2023-05-05T23:57:04.664Z,11.27
2023-05-05T23:59:31.138Z,11.26
